createdAt,value
2018-12-09T00:01:29.451Z,92.30
2018-12-09T00:03:57.912Z,92.50
2018-12-09T00:06:26.310Z,93.00
2018-12-09T00:08:54.730Z,93.00
2018-12-09T00:11:23.163Z,93.20
2018-12-09T00:13:51.555Z,93.10
2018-12-09T00:16:19.986Z,93.60
2018-12-09T00:18:48.403Z,93.60
2018-12-09T00:21:16.787Z,93.70
2018-12-09T00:23:45.193Z,93.40
2018-12-09T00:26:13.606Z,93.60
2018-12-09T00:28:45.703Z,94.40
2018-12-09T00:31:14.099Z,94.90
2018-12-09T00:33:42.796Z,95.00
2018-12-09T00:36:11.181Z,95.10
2018-12-09T00:38:39.591Z,95.80
2018-12-09T00:41:08.027Z,96.40
2018-12-09T00:43:36.446Z,96.00
2018-12-09T00:46:04.971Z,96.20
2018-12-09T00:48:33.399Z,96.70
2018-12-09T00:51:01.849Z,97.00
2018-12-09T00:53:30.387Z,96.90
2018-12-09T00:55:59.007Z,96.90
2018-12-09T00:58:27.525Z,97.30
2018-12-09T01:00:55.981Z,97.90
2018-12-09T01:03:24.563Z,98.20
2018-12-09T01:05:53.041Z,98.30
2018-12-09T01:08:21.469Z,98.20
2018-12-09T01:10:49.888Z,97.70
2018-12-09T01:13:18.374Z,97.10
2018-12-09T01:15:46.819Z,96.80
2018-12-09T01:18:15.386Z,96.20
2018-12-09T01:20:43.861Z,95.90
2018-12-09T01:23:12.259Z,95.60
2018-12-09T01:25:40.675Z,95.60
2018-12-09T01:28:09.133Z,95.60
2018-12-09T01:30:37.554Z,95.10
2018-12-09T01:33:05.987Z,94.30
2018-12-09T01:35:34.507Z,93.70
2018-12-09T01:38:02.935Z,93.70
2018-12-09T01:40:35.610Z,93.90
2018-12-09T01:43:04.091Z,93.80
2018-12-09T01:45:32.511Z,94.20
2018-12-09T01:48:01.034Z,94.10
2018-12-09T01:50:29.586Z,93.80
2018-12-09T01:54:10.165Z,94.30
2018-12-09T01:56:39.148Z,94.00
2018-12-09T01:59:07.564Z,94.00
2018-12-09T02:01:36.047Z,92.60
2018-12-09T02:04:04.446Z,93.10
2018-12-09T02:06:33.275Z,93.00
2018-12-09T02:09:01.693Z,92.80
2018-12-09T02:11:30.107Z,93.00
2018-12-09T02:13:58.610Z,92.90
2018-12-09T02:16:27.018Z,93.30
2018-12-09T02:19:07.333Z,93.50
2018-12-09T02:21:35.762Z,94.00
2018-12-09T02:24:04.186Z,94.70
2018-12-09T02:26:33.121Z,96.30
2018-12-09T02:29:01.541Z,98.30
2018-12-09T02:31:29.984Z,99.90
2018-12-09T02:33:58.406Z,99.90
2018-12-09T02:36:26.813Z,99.90
2018-12-09T02:38:55.226Z,99.90
2018-12-09T02:41:23.731Z,99.90
2018-12-09T02:43:52.259Z,99.90
2018-12-09T02:46:20.698Z,99.90
2018-12-09T02:48:49.549Z,99.90
2018-12-09T02:51:18.084Z,99.90
2018-12-09T02:53:46.626Z,99.90
2018-12-09T02:56:15.023Z,99.90
2018-12-09T02:58:43.407Z,99.90
2018-12-09T03:01:11.837Z,99.90
2018-12-09T03:03:40.395Z,99.90
2018-12-09T03:06:08.895Z,99.90
2018-12-09T03:08:37.315Z,99.90
2018-12-09T03:11:06.298Z,99.90
2018-12-09T03:13:34.734Z,99.90
2018-12-09T03:16:03.155Z,99.90
2018-12-09T03:18:31.571Z,99.90
2018-12-09T03:21:00.041Z,99.90
2018-12-09T03:23:28.473Z,99.90
2018-12-09T03:25:56.972Z,99.90
2018-12-09T03:28:25.400Z,99.90
2018-12-09T03:30:53.839Z,99.90
2018-12-09T03:33:22.354Z,99.90
2018-12-09T03:35:50.763Z,99.90
2018-12-09T03:38:19.210Z,99.90
2018-12-09T03:40:47.675Z,99.90
2018-12-09T03:43:16.075Z,99.90
2018-12-09T03:45:44.839Z,99.90
2018-12-09T03:48:13.243Z,99.90
2018-12-09T03:50:41.650Z,99.90
2018-12-09T03:53:10.063Z,99.90
2018-12-09T03:55:38.495Z,99.90
2018-12-09T03:58:07.027Z,99.90
2018-12-09T04:00:35.455Z,99.90
2018-12-09T04:03:04.004Z,99.90
2018-12-09T04:05:32.398Z,99.90
2018-12-09T04:08:00.855Z,99.90
2018-12-09T04:10:29.274Z,99.90
2018-12-09T04:12:57.690Z,99.90
2018-12-09T04:15:26.210Z,99.90
2018-12-09T04:17:54.642Z,99.90
2018-12-09T04:20:23.464Z,99.90
2018-12-09T04:22:51.884Z,99.90
2018-12-09T04:25:20.303Z,99.90
2018-12-09T04:27:48.798Z,99.90
2018-12-09T04:30:17.236Z,99.90
2018-12-09T04:32:45.646Z,99.90
2018-12-09T04:35:14.055Z,99.90
2018-12-09T04:37:42.475Z,99.90
2018-12-09T04:40:10.966Z,99.90
2018-12-09T04:42:39.353Z,99.90
2018-12-09T04:45:07.788Z,99.90
2018-12-09T04:47:36.187Z,99.90
2018-12-09T04:50:05.892Z,99.90
2018-12-09T04:52:34.345Z,99.90
2018-12-09T04:55:03.046Z,99.90
2018-12-09T04:57:31.460Z,99.90
2018-12-09T05:00:10.963Z,99.90
2018-12-09T05:02:39.370Z,99.90
2018-12-09T05:05:08.090Z,99.90
2018-12-09T05:07:36.531Z,99.90
2018-12-09T05:10:05.539Z,99.90
2018-12-09T05:12:34.335Z,99.90
2018-12-09T05:15:02.735Z,99.90
2018-12-09T05:17:31.157Z,99.90
2018-12-09T05:19:59.638Z,99.90
2018-12-09T05:22:28.057Z,99.90
2018-12-09T05:24:56.485Z,99.90
2018-12-09T05:27:24.892Z,99.90
2018-12-09T05:29:53.374Z,99.90
2018-12-09T05:32:22.061Z,99.90
2018-12-09T05:34:50.483Z,99.90
2018-12-09T05:37:18.914Z,99.90
2018-12-09T05:39:47.875Z,99.90
2018-12-09T05:42:16.306Z,99.90
2018-12-09T05:44:44.775Z,99.90
2018-12-09T05:47:13.196Z,99.90
2018-12-09T05:49:41.635Z,99.90
2018-12-09T05:52:10.362Z,99.90
2018-12-09T05:54:38.774Z,99.90
2018-12-09T05:57:07.210Z,99.90
2018-12-09T05:59:35.660Z,99.90
2018-12-09T06:02:15.431Z,99.90
2018-12-09T06:04:43.881Z,99.90
2018-12-09T06:07:12.303Z,99.90
2018-12-09T06:09:40.735Z,99.90
2018-12-09T06:12:09.175Z,99.90
2018-12-09T06:14:37.920Z,99.90
2018-12-09T06:17:06.430Z,99.90
2018-12-09T06:19:34.890Z,99.90
2018-12-09T06:22:03.309Z,99.90
2018-12-09T06:24:31.793Z,99.90
2018-12-09T06:27:00.184Z,99.90
2018-12-09T06:29:28.719Z,99.90
2018-12-09T06:31:57.125Z,99.90
2018-12-09T06:34:25.551Z,99.90
2018-12-09T06:36:54.015Z,99.90
2018-12-09T06:39:22.432Z,99.90
2018-12-09T06:41:50.848Z,99.90
2018-12-09T06:44:19.285Z,99.90
2018-12-09T06:46:47.796Z,99.90
2018-12-09T06:49:16.235Z,99.90
2018-12-09T06:51:44.735Z,99.90
2018-12-09T06:54:13.195Z,99.90
2018-12-09T06:56:41.634Z,99.90
2018-12-09T06:59:10.096Z,99.90
2018-12-09T07:01:38.490Z,99.90
2018-12-09T07:04:07.324Z,99.90
2018-12-09T07:06:35.791Z,99.90
2018-12-09T07:09:05.591Z,99.90
2018-12-09T07:11:36.190Z,99.90
2018-12-09T07:14:05.441Z,99.90
2018-12-09T07:16:34.007Z,99.90
2018-12-09T07:19:02.561Z,99.90
2018-12-09T07:21:31.138Z,99.90
2018-12-09T07:23:59.657Z,99.90
2018-12-09T07:26:29.548Z,99.90
2018-12-09T07:28:58.322Z,99.90
2018-12-09T07:31:26.870Z,99.90
2018-12-09T07:33:55.526Z,99.90
2018-12-09T07:36:24.102Z,99.90
2018-12-09T07:38:52.755Z,99.90
2018-12-09T07:41:21.342Z,99.90
2018-12-09T07:43:49.956Z,99.90
2018-12-09T07:46:21.531Z,99.90
2018-12-09T07:48:50.288Z,99.90
2018-12-09T07:51:18.859Z,99.90
2018-12-09T07:53:47.424Z,99.90
2018-12-09T07:56:16.018Z,99.90
2018-12-09T07:58:44.700Z,99.90
2018-12-09T08:01:13.255Z,99.90
2018-12-09T08:03:41.730Z,99.90
2018-12-09T08:06:10.507Z,99.90
2018-12-09T08:08:39.031Z,99.90
2018-12-09T08:11:07.642Z,99.90
2018-12-09T08:13:36.164Z,99.90
2018-12-09T08:16:04.651Z,99.90
2018-12-09T08:18:33.406Z,99.90
2018-12-09T08:21:01.991Z,99.90
2018-12-09T08:23:30.527Z,99.90
2018-12-09T08:25:59.046Z,99.90
2018-12-09T08:28:27.688Z,99.90
2018-12-09T08:30:56.727Z,99.90
2018-12-09T08:33:25.868Z,99.90
2018-12-09T08:35:54.358Z,99.90
2018-12-09T08:38:23.048Z,99.90
2018-12-09T08:40:51.577Z,99.90
2018-12-09T08:43:20.082Z,99.90
2018-12-09T08:45:48.669Z,99.90
2018-12-09T08:48:17.273Z,99.90
2018-12-09T08:50:45.935Z,99.90
2018-12-09T08:53:17.285Z,99.90
2018-12-09T08:55:46.015Z,99.90
2018-12-09T08:58:14.691Z,99.90
2018-12-09T09:00:43.664Z,99.90
2018-12-09T09:03:22.274Z,99.90
2018-12-09T09:05:50.898Z,99.90
2018-12-09T09:08:19.847Z,99.90
2018-12-09T09:10:48.430Z,99.90
2018-12-09T09:13:17.051Z,99.90
2018-12-09T09:15:45.810Z,99.90
2018-12-09T09:18:14.427Z,99.90
2018-12-09T09:20:42.971Z,99.90
2018-12-09T09:23:11.452Z,99.90
2018-12-09T09:25:40.133Z,99.90
2018-12-09T09:28:11.722Z,99.90
2018-12-09T09:30:40.559Z,99.90
2018-12-09T09:33:09.386Z,99.90
2018-12-09T09:35:38.022Z,99.90
2018-12-09T09:38:06.592Z,99.90
2018-12-09T09:40:35.178Z,99.90
2018-12-09T09:43:03.659Z,99.90
2018-12-09T09:45:32.203Z,99.90
2018-12-09T09:48:00.679Z,99.90
2018-12-09T09:50:29.159Z,99.90
2018-12-09T09:52:57.847Z,99.90
2018-12-09T09:55:26.376Z,99.90
2018-12-09T09:57:55.179Z,99.90
2018-12-09T10:00:23.752Z,99.90
2018-12-09T10:02:52.270Z,99.90
2018-12-09T10:05:20.864Z,99.90
2018-12-09T10:07:49.464Z,99.90
2018-12-09T10:10:18.022Z,99.90
2018-12-09T10:12:46.653Z,99.90
2018-12-09T10:15:15.257Z,99.90
2018-12-09T10:17:43.870Z,99.90
2018-12-09T10:20:12.402Z,99.90
2018-12-09T10:22:40.943Z,99.90
2018-12-09T10:25:09.579Z,99.90
2018-12-09T10:27:38.157Z,99.90
2018-12-09T10:30:07.896Z,99.90
2018-12-09T10:32:36.745Z,99.90
2018-12-09T10:35:06.458Z,99.90
2018-12-09T10:37:35.001Z,99.90
2018-12-09T10:40:03.734Z,99.90
2018-12-09T10:42:32.403Z,99.90
2018-12-09T10:45:01.017Z,99.90
2018-12-09T10:47:29.744Z,99.90
2018-12-09T10:49:58.235Z,99.90
2018-12-09T10:52:26.727Z,99.90
2018-12-09T10:54:55.361Z,99.90
2018-12-09T10:57:23.878Z,99.90
2018-12-09T10:59:52.422Z,99.90
2018-12-09T11:02:20.906Z,99.90
2018-12-09T11:04:49.405Z,99.90
2018-12-09T11:07:18.023Z,99.90
2018-12-09T11:09:46.667Z,99.90
2018-12-09T11:12:15.358Z,99.90
2018-12-09T11:14:44.026Z,99.90
2018-12-09T11:17:12.663Z,99.90
2018-12-09T11:19:45.336Z,99.90
2018-12-09T11:22:13.870Z,99.90
2018-12-09T11:24:42.527Z,99.90
2018-12-09T11:27:11.121Z,99.90
2018-12-09T11:29:39.737Z,99.90
2018-12-09T11:32:08.301Z,99.90
2018-12-09T11:34:36.851Z,99.90
2018-12-09T11:37:05.410Z,99.90
2018-12-09T11:39:34.052Z,99.90
2018-12-09T11:42:02.609Z,99.90
2018-12-09T11:44:31.250Z,99.90
2018-12-09T11:46:59.991Z,99.90
2018-12-09T11:49:28.666Z,99.90
2018-12-09T11:51:57.239Z,99.90
2018-12-09T11:54:25.783Z,99.90
2018-12-09T11:56:54.285Z,99.90
2018-12-09T11:59:22.868Z,99.90
2018-12-09T12:01:51.516Z,99.90
2018-12-09T12:04:20.004Z,99.90
2018-12-09T12:06:48.530Z,99.90
2018-12-09T12:09:18.017Z,99.90
2018-12-09T12:11:47.090Z,99.90
2018-12-09T12:14:15.611Z,99.90
2018-12-09T12:16:44.172Z,99.90
2018-12-09T12:19:13.732Z,99.90
2018-12-09T12:21:42.362Z,99.90
2018-12-09T12:24:12.018Z,99.90
2018-12-09T12:26:40.655Z,99.90
2018-12-09T12:29:09.401Z,99.90
2018-12-09T12:31:38.310Z,99.90
2018-12-09T12:34:06.865Z,99.90
2018-12-09T12:36:37.953Z,99.90
2018-12-09T12:39:08.785Z,99.90
2018-12-09T12:41:37.428Z,99.90
2018-12-09T12:44:10.926Z,99.90
2018-12-09T12:46:43.905Z,99.90
2018-12-09T12:49:12.552Z,99.90
2018-12-09T12:51:41.175Z,99.90
2018-12-09T12:54:09.808Z,99.90
2018-12-09T12:56:38.343Z,99.90
2018-12-09T12:59:09.022Z,99.90
2018-12-09T13:01:38.742Z,99.90
2018-12-09T13:04:07.339Z,99.90
2018-12-09T13:06:37.284Z,99.90
2018-12-09T13:09:07.685Z,99.90
2018-12-09T13:11:37.863Z,99.90
2018-12-09T13:14:08.602Z,99.90
2018-12-09T13:16:39.462Z,99.90
2018-12-09T13:19:09.367Z,99.90
2018-12-09T13:21:39.340Z,99.90
2018-12-09T13:24:09.204Z,99.90
2018-12-09T13:26:39.172Z,99.90
2018-12-09T13:29:08.113Z,99.90
2018-12-09T13:31:37.823Z,99.90
2018-12-09T13:34:07.411Z,99.90
2018-12-09T13:36:38.069Z,99.90
2018-12-09T13:39:12.578Z,99.90
2018-12-09T13:41:42.320Z,99.90
2018-12-09T13:44:12.416Z,99.90
2018-12-09T13:46:43.728Z,99.90
2018-12-09T13:49:16.455Z,99.90
2018-12-09T13:51:52.910Z,99.90
2018-12-09T13:57:22.156Z,99.90
2018-12-09T13:59:53.477Z,99.90
2018-12-09T14:02:24.314Z,99.90
2018-12-09T14:04:58.270Z,99.90
2018-12-09T14:07:30.596Z,99.90
2018-12-09T14:10:14.048Z,99.90
2018-12-09T14:16:17.753Z,99.90
2018-12-09T14:26:26.452Z,99.90
2018-12-09T14:34:58.356Z,99.90
2018-12-09T14:37:33.840Z,99.90
2018-12-09T14:40:03.889Z,99.90
2018-12-09T14:42:34.049Z,99.90
2018-12-09T14:45:03.915Z,99.90
2018-12-09T14:47:33.323Z,99.90
2018-12-09T14:50:08.540Z,99.90
2018-12-09T14:52:39.988Z,99.90
2018-12-09T14:55:10.514Z,99.90
2018-12-09T14:57:40.363Z,99.90
2018-12-09T15:00:11.075Z,99.90
2018-12-09T15:02:40.428Z,99.90
2018-12-09T15:05:10.097Z,99.90
2018-12-09T15:07:39.245Z,99.90
2018-12-09T15:10:12.831Z,99.90
2018-12-09T15:12:42.406Z,99.90
2018-12-09T15:15:11.912Z,99.90
2018-12-09T15:17:41.825Z,99.90
2018-12-09T15:20:11.876Z,99.90
2018-12-09T15:22:45.853Z,99.90
2018-12-09T15:25:15.050Z,99.90
2018-12-09T15:27:44.317Z,99.90
2018-12-09T15:30:13.792Z,99.90
2018-12-09T15:32:43.336Z,99.90
2018-12-09T15:35:12.088Z,99.90
2018-12-09T15:37:40.803Z,99.90
2018-12-09T15:40:11.979Z,99.90
2018-12-09T15:42:41.371Z,99.90
2018-12-09T15:45:10.244Z,99.90
2018-12-09T15:47:39.295Z,99.90
2018-12-09T15:50:09.354Z,99.90
2018-12-09T15:52:40.418Z,99.90
2018-12-09T15:55:09.069Z,99.90
2018-12-09T15:57:38.141Z,99.90
2018-12-09T16:00:08.430Z,99.90
2018-12-09T16:02:49.463Z,99.90
2018-12-09T16:05:18.349Z,99.90
2018-12-09T16:07:47.800Z,99.90
2018-12-09T16:10:17.622Z,99.90
2018-12-09T16:12:50.934Z,99.90
2018-12-09T16:15:20.589Z,99.90
2018-12-09T16:20:28.931Z,99.90
2018-12-09T16:22:57.937Z,99.90
2018-12-09T16:25:26.989Z,99.90
2018-12-09T16:27:57.158Z,99.90
2018-12-09T16:30:27.053Z,99.90
2018-12-09T16:32:56.084Z,99.90
2018-12-09T16:35:26.793Z,99.90
2018-12-09T16:37:55.910Z,99.90
2018-12-09T16:40:26.099Z,99.90
2018-12-09T16:45:30.283Z,99.90
2018-12-09T16:48:03.126Z,99.90
2018-12-09T16:50:32.728Z,99.90
2018-12-09T16:53:01.691Z,99.90
2018-12-09T16:55:32.029Z,99.90
2018-12-09T16:58:02.915Z,99.90
2018-12-09T17:00:34.102Z,99.90
2018-12-09T17:03:03.230Z,99.90
2018-12-09T17:05:32.189Z,99.90
2018-12-09T17:08:01.715Z,99.90
2018-12-09T17:10:31.846Z,99.90
2018-12-09T17:13:00.806Z,99.90
2018-12-09T17:15:29.718Z,99.90
2018-12-09T17:20:41.031Z,99.90
2018-12-09T17:23:09.614Z,99.90
2018-12-09T17:25:38.809Z,99.90
2018-12-09T17:28:07.304Z,99.90
2018-12-09T17:30:36.181Z,99.90
2018-12-09T17:35:47.893Z,99.90
2018-12-09T17:38:17.345Z,99.90
2018-12-09T17:40:47.411Z,99.90
2018-12-09T17:43:21.931Z,99.90
2018-12-09T17:45:52.932Z,99.90
2018-12-09T17:48:22.117Z,99.90
2018-12-09T17:50:51.376Z,99.90
2018-12-09T17:53:20.354Z,99.90
2018-12-09T17:55:51.629Z,99.90
2018-12-09T17:58:20.951Z,99.90
2018-12-09T18:00:49.432Z,99.90
2018-12-09T18:05:58.830Z,99.90
2018-12-09T18:08:27.580Z,99.90
2018-12-09T18:10:56.362Z,99.90
2018-12-09T18:13:24.896Z,99.90
2018-12-09T18:16:00.757Z,99.90
2018-12-09T18:18:29.455Z,99.90
2018-12-09T18:20:58.128Z,99.90
2018-12-09T18:23:27.202Z,99.90
2018-12-09T18:25:56.492Z,99.90
2018-12-09T18:28:25.692Z,99.90
2018-12-09T18:30:54.356Z,99.90
2018-12-09T18:33:23.291Z,99.90
2018-12-09T18:35:53.240Z,99.90
2018-12-09T18:38:22.451Z,99.90
2018-12-09T18:40:51.743Z,99.90
2018-12-09T18:43:21.360Z,99.90
2018-12-09T18:45:50.826Z,99.90
2018-12-09T18:48:19.425Z,99.90
2018-12-09T18:50:48.498Z,99.90
2018-12-09T18:53:17.797Z,99.90
2018-12-09T18:55:47.049Z,99.90
2018-12-09T18:58:16.194Z,99.90
2018-12-09T19:00:45.350Z,99.90
2018-12-09T19:03:14.678Z,99.90
2018-12-09T19:05:44.078Z,99.90
2018-12-09T19:08:13.575Z,99.90
2018-12-09T19:10:42.320Z,99.90
2018-12-09T19:13:21.502Z,99.90
2018-12-09T19:15:50.652Z,99.90
2018-12-09T19:18:19.814Z,99.90
2018-12-09T19:20:59.146Z,99.90
2018-12-09T19:23:28.114Z,99.90
2018-12-09T19:25:56.901Z,99.90
2018-12-09T19:28:27.260Z,99.90
2018-12-09T19:30:58.950Z,99.90
2018-12-09T19:33:28.315Z,99.90
2018-12-09T19:35:58.393Z,99.90
2018-12-09T19:38:27.527Z,99.90
2018-12-09T19:41:01.544Z,99.90
2018-12-09T19:43:30.801Z,99.90
2018-12-09T19:46:00.144Z,99.90
2018-12-09T19:48:29.962Z,99.90
2018-12-09T19:51:14.514Z,99.90
2018-12-09T19:53:43.575Z,99.90
2018-12-09T19:56:12.482Z,99.90
2018-12-09T19:58:41.711Z,99.90
2018-12-09T20:04:19.074Z,99.90
2018-12-09T20:06:47.722Z,99.90
2018-12-09T20:09:16.481Z,99.90
2018-12-09T20:11:45.076Z,99.90
2018-12-09T20:14:14.191Z,99.90
2018-12-09T20:16:44.176Z,99.90
2018-12-09T20:19:13.547Z,99.90
2018-12-09T20:21:42.470Z,99.90
2018-12-09T20:24:11.015Z,99.90
2018-12-09T20:26:39.777Z,99.90
2018-12-09T20:29:08.910Z,99.90
2018-12-09T20:31:37.510Z,99.90
2018-12-09T20:34:06.139Z,99.90
2018-12-09T20:36:34.751Z,99.90
2018-12-09T20:39:04.266Z,99.90
2018-12-09T20:41:33.022Z,99.90
2018-12-09T20:44:01.601Z,99.90
2018-12-09T20:46:30.231Z,99.90
2018-12-09T20:48:59.309Z,99.90
2018-12-09T20:51:28.045Z,99.90
2018-12-09T20:53:56.714Z,99.90
2018-12-09T20:56:27.320Z,99.90
2018-12-09T20:58:56.067Z,99.90
2018-12-09T21:01:24.662Z,99.90
2018-12-09T21:03:54.118Z,99.90
2018-12-09T21:06:22.714Z,99.90
2018-12-09T21:08:51.818Z,99.90
2018-12-09T21:11:20.661Z,99.90
2018-12-09T21:13:49.650Z,99.90
2018-12-09T21:16:18.677Z,99.90
2018-12-09T21:18:47.843Z,99.90
2018-12-09T21:21:16.967Z,99.90
2018-12-09T21:23:46.032Z,99.90
2018-12-09T21:26:15.164Z,99.90
2018-12-09T21:28:43.952Z,99.90
2018-12-09T21:31:12.635Z,99.90
2018-12-09T21:33:41.629Z,99.90
2018-12-09T21:36:10.520Z,99.90
2018-12-09T21:38:39.799Z,99.90
2018-12-09T21:41:08.891Z,99.90
2018-12-09T21:43:38.011Z,99.90
2018-12-09T21:46:07.126Z,99.90
2018-12-09T21:48:36.307Z,99.90
2018-12-09T21:51:05.173Z,99.90
2018-12-09T21:53:34.760Z,99.90
2018-12-09T21:56:03.587Z,99.90
2018-12-09T21:58:32.892Z,99.90
2018-12-09T22:01:02.084Z,99.90
2018-12-09T22:03:31.151Z,99.90
2018-12-09T22:06:00.102Z,99.90
2018-12-09T22:08:28.882Z,99.90
2018-12-09T22:10:57.902Z,99.90
2018-12-09T22:13:27.305Z,99.90
2018-12-09T22:15:56.600Z,99.90
2018-12-09T22:18:25.519Z,99.90
2018-12-09T22:20:54.952Z,99.90
2018-12-09T22:23:23.593Z,99.90
2018-12-09T22:25:52.238Z,99.90
2018-12-09T22:28:20.947Z,99.90
2018-12-09T22:30:49.720Z,99.90
2018-12-09T22:33:18.487Z,99.90
2018-12-09T22:35:47.358Z,99.90
2018-12-09T22:38:16.113Z,99.90
2018-12-09T22:40:45.262Z,99.90
2018-12-09T22:43:15.147Z,99.90
2018-12-09T22:45:43.706Z,99.90
2018-12-09T22:48:12.642Z,99.90
2018-12-09T22:50:41.336Z,99.90
2018-12-09T22:53:10.196Z,99.90
2018-12-09T22:55:38.972Z,99.90
2018-12-09T22:58:07.749Z,99.90
2018-12-09T23:00:38.516Z,99.90
2018-12-09T23:03:07.325Z,99.90
2018-12-09T23:05:36.107Z,99.90
2018-12-09T23:08:04.867Z,99.90
2018-12-09T23:10:33.329Z,99.90
2018-12-09T23:13:02.095Z,99.90
2018-12-09T23:15:30.689Z,99.90
2018-12-09T23:17:59.542Z,99.90
2018-12-09T23:20:28.332Z,99.90
2018-12-09T23:22:57.280Z,99.90
2018-12-09T23:25:26.129Z,99.90
2018-12-09T23:27:54.895Z,99.90
2018-12-09T23:30:23.511Z,99.90
2018-12-09T23:32:52.374Z,99.90
2018-12-09T23:35:21.239Z,99.90
2018-12-09T23:37:50.001Z,99.90
2018-12-09T23:40:18.621Z,99.90
2018-12-09T23:42:47.467Z,99.90
2018-12-09T23:45:16.234Z,99.90
2018-12-09T23:47:44.895Z,99.90
2018-12-09T23:50:13.794Z,99.90
2018-12-09T23:52:42.663Z,99.90
2018-12-09T23:55:11.775Z,99.90
2018-12-09T23:57:40.757Z,99.90
